Orbital elements of KIKU-4
| Launched | 2 September 1982 |
| Flight ended | – |
| Launch site | Tanegashima Space Center, Japan |
| Owner | Japan |
| NORAD ID | 13492 |
| Alternative names |
ETS-III |
| Date fetched |
Epoch osculation |
Inc. [°] |
Ecc. | RA asc node [hr] |
Arg Peri. [°] |
Mean anom [°] |
Mean motion [rev/day] |
Abs. mag |
| Date fetched |
Epoch osculation |
Inc. [°] |
Ecc. | RA asc node [hr] |
Arg Peri. [°] |
Mean anom [°] |
Mean motion [rev/day] |
Abs. mag |
| 2026 May 08 17:57 | 2026 May 05 00:54:14 | 44.6142 | 0.00124 | 8.0781 | 284.8303 | 116.9089 | 13.71268 | 7.243 |
| 2026 May 07 17:58 | 2026 May 05 00:54:14 | 44.6142 | 0.00124 | 8.0781 | 284.8303 | 116.9089 | 13.71268 | 7.243 |
| 2026 May 06 17:57 | 2026 May 05 00:54:14 | 44.6142 | 0.00124 | 8.0781 | 284.8303 | 116.9089 | 13.71268 | 7.243 |
| 2026 May 05 17:57 | 2026 May 05 00:54:14 | 44.6142 | 0.00124 | 8.0781 | 284.8303 | 116.9089 | 13.71268 | 7.243 |
| 2026 May 04 17:57 | 2026 Apr 30 11:15:37 | 44.6139 | 0.00124 | 9.3794 | 265.0964 | 116.9089 | 13.71268 | 7.243 |
| 2026 May 03 17:57 | 2026 Apr 30 11:15:37 | 44.6139 | 0.00124 | 9.3794 | 265.0964 | 116.9089 | 13.71268 | 7.243 |
| 2026 May 02 17:57 | 2026 Apr 30 11:15:37 | 44.6139 | 0.00124 | 9.3794 | 265.0964 | 116.9089 | 13.71268 | 7.243 |
| 2026 May 01 17:56 | 2026 Apr 30 11:15:37 | 44.6139 | 0.00124 | 9.3794 | 265.0964 | 116.9089 | 13.71268 | 7.243 |
| 2026 Apr 30 17:56 | 2026 Apr 30 11:15:37 | 44.6139 | 0.00124 | 9.3794 | 265.0964 | 116.9089 | 13.71268 | 7.243 |
| 2026 Apr 29 17:57 | 2026 Apr 24 09:29:04 | 44.6145 | 0.00123 | 11.1095 | 238.6613 | 116.9089 | 13.71268 | 7.243 |
| 2026 Apr 28 17:56 | 2026 Apr 24 09:29:04 | 44.6145 | 0.00123 | 11.1095 | 238.6613 | 116.9089 | 13.71268 | 7.243 |
| 2026 Apr 27 17:58 | 2026 Apr 24 09:29:04 | 44.6145 | 0.00123 | 11.1095 | 238.6613 | 116.9089 | 13.71268 | 7.243 |
| 2026 Apr 26 17:58 | 2026 Apr 24 09:29:04 | 44.6145 | 0.00123 | 11.1095 | 238.6613 | 116.9089 | 13.71268 | 7.243 |
| 2026 Apr 25 17:58 | 2026 Apr 24 09:29:04 | 44.6145 | 0.00123 | 11.1095 | 238.6613 | 116.9089 | 13.71268 | 7.243 |
| 2026 Apr 24 17:59 | 2026 Apr 24 09:29:04 | 44.6145 | 0.00123 | 11.1095 | 238.6613 | 116.9089 | 13.71268 | 7.243 |
| 2026 Apr 23 17:57 | 2026 Apr 19 12:19:22 | 44.6151 | 0.00120 | 12.4999 | 217.3183 | 116.9089 | 13.71268 | 7.243 |
| 2026 Apr 22 17:57 | 2026 Apr 19 12:19:22 | 44.6151 | 0.00120 | 12.4999 | 217.3183 | 116.9089 | 13.71268 | 7.243 |
| 2026 Apr 21 17:57 | 2026 Apr 19 12:19:22 | 44.6151 | 0.00120 | 12.4999 | 217.3183 | 116.9089 | 13.71268 | 7.243 |
| 2026 Apr 20 17:57 | 2026 Apr 19 12:19:22 | 44.6151 | 0.00120 | 12.4999 | 217.3183 | 116.9089 | 13.71268 | 7.243 |
| 2026 Apr 19 17:58 | 2026 Apr 19 12:19:22 | 44.6151 | 0.00120 | 12.4999 | 217.3183 | 116.9089 | 13.71268 | 7.243 |
| 2026 Apr 18 17:56 | 2026 Apr 13 07:47:00 | 44.6155 | 0.00117 | 14.2627 | 189.4199 | 116.9089 | 13.71268 | 7.243 |
| 2026 Apr 16 17:57 | 2026 Apr 13 07:47:00 | 44.6155 | 0.00117 | 14.2627 | 189.4199 | 116.9089 | 13.71268 | 7.243 |
| 2026 Apr 14 17:57 | 2026 Apr 13 07:47:00 | 44.6155 | 0.00117 | 14.2627 | 189.4199 | 116.9089 | 13.71268 | 7.243 |
| 2026 Apr 13 17:57 | 2026 Apr 13 07:47:00 | 44.6155 | 0.00117 | 14.2627 | 189.4199 | 116.9089 | 13.71268 | 7.243 |
| 2026 Apr 12 17:57 | 2026 Apr 08 15:47:21 | 44.6154 | 0.00113 | 15.5918 | 167.7538 | 116.9089 | 13.71268 | 7.243 |
| 2026 Apr 11 17:57 | 2026 Apr 08 15:47:21 | 44.6154 | 0.00113 | 15.5918 | 167.7538 | 116.9089 | 13.71268 | 7.243 |